sensor_id;sensor_type;location;lat;lon;timestamp;P1;durP1;ratioP1;P2;durP2;ratioP2
12474;SDS011;6302;42.624;23.334;2023-06-04T00:00:27;8.07;;;7.23;;
12474;SDS011;6302;42.624;23.334;2023-06-04T00:02:54;9.00;;;7.50;;
12474;SDS011;6302;42.624;23.334;2023-06-04T00:05:22;8.13;;;7.03;;
12474;SDS011;6302;42.624;23.334;2023-06-04T00:07:50;8.23;;;6.90;;
12474;SDS011;6302;42.624;23.334;2023-06-04T00:10:17;10.83;;;7.80;;
12474;SDS011;6302;42.624;23.334;2023-06-04T00:12:44;9.57;;;7.93;;
12474;SDS011;6302;42.624;23.334;2023-06-04T00:15:10;10.23;;;8.43;;
12474;SDS011;6302;42.624;23.334;2023-06-04T00:17:38;11.83;;;9.03;;
12474;SDS011;6302;42.624;23.334;2023-06-04T00:20:05;13.13;;;7.80;;
12474;SDS011;6302;42.624;23.334;2023-06-04T00:22:34;11.17;;;8.00;;
12474;SDS011;6302;42.624;23.334;2023-06-04T00:25:01;11.53;;;8.37;;
12474;SDS011;6302;42.624;23.334;2023-06-04T00:27:28;10.07;;;8.63;;
12474;SDS011;6302;42.624;23.334;2023-06-04T00:29:55;10.23;;;8.97;;
12474;SDS011;6302;42.624;23.334;2023-06-04T00:32:22;11.10;;;8.53;;
12474;SDS011;6302;42.624;23.334;2023-06-04T00:34:50;13.10;;;9.87;;
12474;SDS011;6302;42.624;23.334;2023-06-04T00:37:17;13.93;;;11.27;;
12474;SDS011;6302;42.624;23.334;2023-06-04T00:39:46;12.03;;;9.67;;
12474;SDS011;6302;42.624;23.334;2023-06-04T00:42:13;11.40;;;9.93;;
12474;SDS011;6302;42.624;23.334;2023-06-04T00:44:40;13.47;;;12.03;;
12474;SDS011;6302;42.624;23.334;2023-06-04T00:47:09;12.90;;;10.87;;
12474;SDS011;6302;42.624;23.334;2023-06-04T00:49:36;11.33;;;10.17;;
12474;SDS011;6302;42.624;23.334;2023-06-04T00:52:04;10.90;;;9.80;;
12474;SDS011;6302;42.624;23.334;2023-06-04T00:54:31;14.17;;;11.83;;
12474;SDS011;6302;42.624;23.334;2023-06-04T00:57:00;15.53;;;13.00;;
12474;SDS011;6302;42.624;23.334;2023-06-04T00:59:27;14.60;;;12.53;;
12474;SDS011;6302;42.624;23.334;2023-06-04T01:01:58;14.27;;;12.77;;
12474;SDS011;6302;42.624;23.334;2023-06-04T01:04:29;15.70;;;13.13;;
12474;SDS011;6302;42.624;23.334;2023-06-04T01:06:59;14.17;;;12.23;;
12474;SDS011;6302;42.624;23.334;2023-06-04T01:09:29;14.87;;;12.20;;
12474;SDS011;6302;42.624;23.334;2023-06-04T01:11:56;12.30;;;10.60;;
12474;SDS011;6302;42.624;23.334;2023-06-04T01:14:25;9.83;;;8.80;;
12474;SDS011;6302;42.624;23.334;2023-06-04T01:16:53;8.83;;;7.93;;
12474;SDS011;6302;42.624;23.334;2023-06-04T01:22:35;11.37;;;9.03;;
12474;SDS011;6302;42.624;23.334;2023-06-04T01:25:13;10.47;;;8.73;;
12474;SDS011;6302;42.624;23.334;2023-06-04T01:27:45;10.70;;;8.50;;
12474;SDS011;6302;42.624;23.334;2023-06-04T01:30:16;11.40;;;9.07;;
12474;SDS011;6302;42.624;23.334;2023-06-04T01:32:43;11.87;;;8.87;;
12474;SDS011;6302;42.624;23.334;2023-06-04T01:35:11;10.20;;;9.03;;
12474;SDS011;6302;42.624;23.334;2023-06-04T01:37:38;9.80;;;8.80;;
12474;SDS011;6302;42.624;23.334;2023-06-04T01:40:06;10.73;;;8.50;;
12474;SDS011;6302;42.624;23.334;2023-06-04T01:42:34;9.90;;;8.90;;
12474;SDS011;6302;42.624;23.334;2023-06-04T01:45:01;9.33;;;8.43;;
12474;SDS011;6302;42.624;23.334;2023-06-04T01:47:29;10.13;;;8.90;;
12474;SDS011;6302;42.624;23.334;2023-06-04T01:49:56;9.43;;;8.50;;
12474;SDS011;6302;42.624;23.334;2023-06-04T01:52:23;10.10;;;9.20;;
12474;SDS011;6302;42.624;23.334;2023-06-04T01:54:50;10.43;;;9.40;;
12474;SDS011;6302;42.624;23.334;2023-06-04T01:57:17;10.30;;;9.20;;
12474;SDS011;6302;42.624;23.334;2023-06-04T01:59:44;11.77;;;10.53;;
12474;SDS011;6302;42.624;23.334;2023-06-04T02:02:11;12.17;;;10.97;;
12474;SDS011;6302;42.624;23.334;2023-06-04T02:04:40;12.97;;;10.23;;
12474;SDS011;6302;42.624;23.334;2023-06-04T02:07:08;11.60;;;10.27;;
12474;SDS011;6302;42.624;23.334;2023-06-04T02:09:35;11.23;;;9.83;;
12474;SDS011;6302;42.624;23.334;2023-06-04T02:12:02;11.57;;;9.77;;
12474;SDS011;6302;42.624;23.334;2023-06-04T02:14:29;11.27;;;10.13;;
12474;SDS011;6302;42.624;23.334;2023-06-04T02:16:56;11.10;;;9.90;;
12474;SDS011;6302;42.624;23.334;2023-06-04T02:19:23;10.17;;;8.13;;
12474;SDS011;6302;42.624;23.334;2023-06-04T02:21:52;7.63;;;6.67;;
12474;SDS011;6302;42.624;23.334;2023-06-04T02:24:19;6.73;;;6.03;;
12474;SDS011;6302;42.624;23.334;2023-06-04T02:26:46;5.83;;;5.33;;
12474;SDS011;6302;42.624;23.334;2023-06-04T02:29:13;4.80;;;4.40;;
12474;SDS011;6302;42.624;23.334;2023-06-04T02:31:39;4.97;;;4.10;;
12474;SDS011;6302;42.624;23.334;2023-06-04T02:34:06;4.80;;;4.40;;
12474;SDS011;6302;42.624;23.334;2023-06-04T02:36:33;4.60;;;4.20;;
12474;SDS011;6302;42.624;23.334;2023-06-04T02:39:01;5.13;;;4.63;;
12474;SDS011;6302;42.624;23.334;2023-06-04T02:41:28;4.90;;;4.43;;
12474;SDS011;6302;42.624;23.334;2023-06-04T02:43:55;4.93;;;4.30;;
12474;SDS011;6302;42.624;23.334;2023-06-04T02:46:22;4.50;;;4.10;;
12474;SDS011;6302;42.624;23.334;2023-06-04T02:48:49;4.57;;;4.17;;
12474;SDS011;6302;42.624;23.334;2023-06-04T02:51:15;5.23;;;4.50;;
12474;SDS011;6302;42.624;23.334;2023-06-04T02:53:42;4.63;;;4.23;;
12474;SDS011;6302;42.624;23.334;2023-06-04T02:56:11;4.57;;;4.17;;
12474;SDS011;6302;42.624;23.334;2023-06-04T02:58:48;5.77;;;5.17;;
12474;SDS011;6302;42.624;23.334;2023-06-04T03:01:17;5.57;;;5.07;;
12474;SDS011;6302;42.624;23.334;2023-06-04T03:03:44;6.00;;;5.00;;
12474;SDS011;6302;42.624;23.334;2023-06-04T03:06:11;4.63;;;4.23;;
12474;SDS011;6302;42.624;23.334;2023-06-04T03:08:39;5.83;;;5.33;;
12474;SDS011;6302;42.624;23.334;2023-06-04T03:11:06;6.77;;;5.50;;
12474;SDS011;6302;42.624;23.334;2023-06-04T03:13:34;6.40;;;5.50;;
12474;SDS011;6302;42.624;23.334;2023-06-04T03:16:01;6.27;;;5.37;;
12474;SDS011;6302;42.624;23.334;2023-06-04T03:18:28;6.23;;;5.63;;
12474;SDS011;6302;42.624;23.334;2023-06-04T03:20:56;7.33;;;5.80;;
12474;SDS011;6302;42.624;23.334;2023-06-04T03:23:23;6.17;;;5.40;;
12474;SDS011;6302;42.624;23.334;2023-06-04T03:25:49;6.07;;;5.37;;
12474;SDS011;6302;42.624;23.334;2023-06-04T03:28:16;5.60;;;4.97;;
12474;SDS011;6302;42.624;23.334;2023-06-04T03:30:44;5.77;;;5.03;;
12474;SDS011;6302;42.624;23.334;2023-06-04T03:33:11;5.33;;;4.83;;
12474;SDS011;6302;42.624;23.334;2023-06-04T03:35:39;5.00;;;4.47;;
12474;SDS011;6302;42.624;23.334;2023-06-04T03:38:06;6.10;;;5.50;;
12474;SDS011;6302;42.624;23.334;2023-06-04T03:40:33;5.50;;;4.97;;
12474;SDS011;6302;42.624;23.334;2023-06-04T03:43:00;6.70;;;6.10;;
12474;SDS011;6302;42.624;23.334;2023-06-04T03:45:29;7.70;;;6.90;;
12474;SDS011;6302;42.624;23.334;2023-06-04T03:47:57;5.83;;;5.23;;
12474;SDS011;6302;42.624;23.334;2023-06-04T03:50:24;4.87;;;4.43;;
12474;SDS011;6302;42.624;23.334;2023-06-04T03:52:50;4.90;;;4.47;;
12474;SDS011;6302;42.624;23.334;2023-06-04T03:55:17;6.00;;;4.27;;
12474;SDS011;6302;42.624;23.334;2023-06-04T03:57:45;4.83;;;4.43;;
12474;SDS011;6302;42.624;23.334;2023-06-04T04:00:13;4.43;;;4.03;;
12474;SDS011;6302;42.624;23.334;2023-06-04T04:02:42;4.57;;;4.17;;
12474;SDS011;6302;42.624;23.334;2023-06-04T04:05:11;4.50;;;4.03;;
12474;SDS011;6302;42.624;23.334;2023-06-04T04:07:37;4.80;;;4.27;;
12474;SDS011;6302;42.624;23.334;2023-06-04T04:10:05;5.13;;;4.50;;
12474;SDS011;6302;42.624;23.334;2023-06-04T04:12:32;5.07;;;4.57;;
12474;SDS011;6302;42.624;23.334;2023-06-04T04:14:59;6.00;;;4.73;;
12474;SDS011;6302;42.624;23.334;2023-06-04T04:17:25;5.03;;;4.53;;
12474;SDS011;6302;42.624;23.334;2023-06-04T04:19:52;5.80;;;4.50;;
12474;SDS011;6302;42.624;23.334;2023-06-04T04:22:21;5.60;;;4.57;;
12474;SDS011;6302;42.624;23.334;2023-06-04T04:24:48;6.57;;;4.97;;
12474;SDS011;6302;42.624;23.334;2023-06-04T04:27:15;5.03;;;4.63;;
12474;SDS011;6302;42.624;23.334;2023-06-04T04:29:41;5.40;;;4.83;;
12474;SDS011;6302;42.624;23.334;2023-06-04T04:32:12;5.43;;;4.93;;
12474;SDS011;6302;42.624;23.334;2023-06-04T04:34:49;5.27;;;4.57;;
12474;SDS011;6302;42.624;23.334;2023-06-04T04:37:17;5.87;;;5.37;;
12474;SDS011;6302;42.624;23.334;2023-06-04T04:39:47;5.57;;;5.07;;
12474;SDS011;6302;42.624;23.334;2023-06-04T04:42:16;5.30;;;4.80;;
12474;SDS011;6302;42.624;23.334;2023-06-04T04:44:43;5.53;;;5.03;;
12474;SDS011;6302;42.624;23.334;2023-06-04T04:47:13;7.77;;;5.83;;
12474;SDS011;6302;42.624;23.334;2023-06-04T04:49:40;5.60;;;5.07;;
12474;SDS011;6302;42.624;23.334;2023-06-04T04:52:07;5.40;;;4.90;;
12474;SDS011;6302;42.624;23.334;2023-06-04T04:54:34;5.87;;;4.97;;
12474;SDS011;6302;42.624;23.334;2023-06-04T04:57:02;5.43;;;4.93;;
12474;SDS011;6302;42.624;23.334;2023-06-04T04:59:29;7.70;;;5.20;;
12474;SDS011;6302;42.624;23.334;2023-06-04T05:01:56;5.90;;;5.30;;
12474;SDS011;6302;42.624;23.334;2023-06-04T05:04:22;5.23;;;4.73;;
12474;SDS011;6302;42.624;23.334;2023-06-04T05:06:49;8.10;;;5.00;;
12474;SDS011;6302;42.624;23.334;2023-06-04T05:09:16;6.23;;;4.83;;
12474;SDS011;6302;42.624;23.334;2023-06-04T05:11:43;7.30;;;5.93;;
12474;SDS011;6302;42.624;23.334;2023-06-04T05:14:11;6.73;;;6.13;;
12474;SDS011;6302;42.624;23.334;2023-06-04T05:16:38;7.13;;;6.00;;
12474;SDS011;6302;42.624;23.334;2023-06-04T05:19:06;8.80;;;7.90;;
12474;SDS011;6302;42.624;23.334;2023-06-04T05:21:33;7.03;;;6.27;;
12474;SDS011;6302;42.624;23.334;2023-06-04T05:24:01;7.13;;;6.30;;
12474;SDS011;6302;42.624;23.334;2023-06-04T05:26:28;7.90;;;6.47;;
12474;SDS011;6302;42.624;23.334;2023-06-04T05:28:55;7.20;;;6.50;;
12474;SDS011;6302;42.624;23.334;2023-06-04T05:31:24;7.97;;;6.20;;
12474;SDS011;6302;42.624;23.334;2023-06-04T05:33:52;6.97;;;6.33;;
12474;SDS011;6302;42.624;23.334;2023-06-04T05:36:19;6.83;;;6.13;;
12474;SDS011;6302;42.624;23.334;2023-06-04T05:38:46;9.27;;;6.53;;
12474;SDS011;6302;42.624;23.334;2023-06-04T05:41:22;6.60;;;6.00;;
12474;SDS011;6302;42.624;23.334;2023-06-04T05:43:49;8.23;;;6.70;;
12474;SDS011;6302;42.624;23.334;2023-06-04T05:46:16;6.97;;;6.37;;
12474;SDS011;6302;42.624;23.334;2023-06-04T05:48:44;7.00;;;6.40;;
12474;SDS011;6302;42.624;23.334;2023-06-04T05:51:12;7.40;;;6.70;;
12474;SDS011;6302;42.624;23.334;2023-06-04T05:53:39;8.17;;;6.63;;
12474;SDS011;6302;42.624;23.334;2023-06-04T05:56:07;7.40;;;6.70;;
12474;SDS011;6302;42.624;23.334;2023-06-04T05:58:34;7.13;;;6.53;;
12474;SDS011;6302;42.624;23.334;2023-06-04T06:01:01;7.30;;;6.27;;
12474;SDS011;6302;42.624;23.334;2023-06-04T06:03:28;7.53;;;6.57;;
12474;SDS011;6302;42.624;23.334;2023-06-04T06:05:56;8.63;;;6.23;;
12474;SDS011;6302;42.624;23.334;2023-06-04T06:08:24;8.00;;;6.70;;
12474;SDS011;6302;42.624;23.334;2023-06-04T06:10:51;7.87;;;6.53;;
12474;SDS011;6302;42.624;23.334;2023-06-04T06:13:18;7.10;;;6.40;;
12474;SDS011;6302;42.624;23.334;2023-06-04T06:15:48;7.97;;;6.67;;
12474;SDS011;6302;42.624;23.334;2023-06-04T06:18:15;7.80;;;6.67;;
12474;SDS011;6302;42.624;23.334;2023-06-04T06:20:41;9.30;;;6.77;;
12474;SDS011;6302;42.624;23.334;2023-06-04T06:23:12;8.53;;;6.37;;
12474;SDS011;6302;42.624;23.334;2023-06-04T06:25:39;7.40;;;6.70;;
12474;SDS011;6302;42.624;23.334;2023-06-04T06:28:06;8.93;;;6.57;;
12474;SDS011;6302;42.624;23.334;2023-06-04T06:30:33;6.90;;;6.10;;
12474;SDS011;6302;42.624;23.334;2023-06-04T06:33:00;6.70;;;6.00;;
12474;SDS011;6302;42.624;23.334;2023-06-04T06:35:26;9.43;;;6.40;;
12474;SDS011;6302;42.624;23.334;2023-06-04T06:37:53;7.13;;;5.90;;
12474;SDS011;6302;42.624;23.334;2023-06-04T06:40:21;9.07;;;6.00;;
12474;SDS011;6302;42.624;23.334;2023-06-04T06:42:48;7.17;;;6.47;;
12474;SDS011;6302;42.624;23.334;2023-06-04T06:45:16;7.50;;;6.53;;
12474;SDS011;6302;42.624;23.334;2023-06-04T06:47:43;7.03;;;6.20;;
12474;SDS011;6302;42.624;23.334;2023-06-04T06:50:10;7.67;;;6.37;;
12474;SDS011;6302;42.624;23.334;2023-06-04T06:52:37;11.10;;;6.40;;
12474;SDS011;6302;42.624;23.334;2023-06-04T06:55:04;6.90;;;6.07;;
12474;SDS011;6302;42.624;23.334;2023-06-04T06:57:32;8.00;;;5.80;;
12474;SDS011;6302;42.624;23.334;2023-06-04T06:59:59;12.93;;;7.07;;
12474;SDS011;6302;42.624;23.334;2023-06-04T07:02:26;11.73;;;6.70;;
12474;SDS011;6302;42.624;23.334;2023-06-04T07:04:53;6.17;;;5.67;;
12474;SDS011;6302;42.624;23.334;2023-06-04T07:07:20;8.90;;;5.60;;
12474;SDS011;6302;42.624;23.334;2023-06-04T07:09:47;7.37;;;6.47;;
12474;SDS011;6302;42.624;23.334;2023-06-04T07:12:14;6.70;;;5.80;;
12474;SDS011;6302;42.624;23.334;2023-06-04T07:14:43;7.77;;;6.00;;
12474;SDS011;6302;42.624;23.334;2023-06-04T07:17:10;8.70;;;5.77;;
12474;SDS011;6302;42.624;23.334;2023-06-04T07:19:37;6.53;;;5.87;;
12474;SDS011;6302;42.624;23.334;2023-06-04T07:22:03;6.83;;;6.20;;
12474;SDS011;6302;42.624;23.334;2023-06-04T07:24:30;6.33;;;5.60;;
12474;SDS011;6302;42.624;23.334;2023-06-04T07:26:57;8.63;;;7.27;;
12474;SDS011;6302;42.624;23.334;2023-06-04T07:29:24;9.30;;;6.53;;
12474;SDS011;6302;42.624;23.334;2023-06-04T07:31:52;6.67;;;5.97;;
12474;SDS011;6302;42.624;23.334;2023-06-04T07:34:21;8.43;;;6.97;;
12474;SDS011;6302;42.624;23.334;2023-06-04T07:36:48;9.00;;;6.97;;
12474;SDS011;6302;42.624;23.334;2023-06-04T07:39:15;8.50;;;6.93;;
12474;SDS011;6302;42.624;23.334;2023-06-04T07:41:42;9.27;;;7.27;;
12474;SDS011;6302;42.624;23.334;2023-06-04T07:44:08;9.67;;;7.70;;
12474;SDS011;6302;42.624;23.334;2023-06-04T07:46:38;9.63;;;7.13;;
12474;SDS011;6302;42.624;23.334;2023-06-04T07:49:06;10.67;;;8.23;;
12474;SDS011;6302;42.624;23.334;2023-06-04T07:51:32;10.90;;;7.60;;
12474;SDS011;6302;42.624;23.334;2023-06-04T07:53:59;9.73;;;8.33;;
12474;SDS011;6302;42.624;23.334;2023-06-04T07:56:27;9.43;;;7.67;;
12474;SDS011;6302;42.624;23.334;2023-06-04T07:58:53;9.27;;;8.33;;
12474;SDS011;6302;42.624;23.334;2023-06-04T08:01:20;13.80;;;8.70;;
12474;SDS011;6302;42.624;23.334;2023-06-04T08:03:49;9.27;;;7.23;;
12474;SDS011;6302;42.624;23.334;2023-06-04T08:06:17;8.77;;;7.37;;
12474;SDS011;6302;42.624;23.334;2023-06-04T08:08:44;9.17;;;7.63;;
12474;SDS011;6302;42.624;23.334;2023-06-04T08:11:13;11.27;;;8.33;;
12474;SDS011;6302;42.624;23.334;2023-06-04T08:13:40;8.03;;;7.03;;
12474;SDS011;6302;42.624;23.334;2023-06-04T08:16:08;11.65;;;8.63;;
12474;SDS011;6302;42.624;23.334;2023-06-04T08:18:37;12.23;;;10.07;;
12474;SDS011;6302;42.624;23.334;2023-06-04T08:21:04;12.63;;;9.10;;
12474;SDS011;6302;42.624;23.334;2023-06-04T08:23:33;10.77;;;9.47;;
12474;SDS011;6302;42.624;23.334;2023-06-04T08:26:00;13.60;;;9.82;;
12474;SDS011;6302;42.624;23.334;2023-06-04T08:28:26;10.67;;;9.47;;
12474;SDS011;6302;42.624;23.334;2023-06-04T08:30:53;12.23;;;9.43;;
12474;SDS011;6302;42.624;23.334;2023-06-04T08:33:20;10.60;;;9.17;;
12474;SDS011;6302;42.624;23.334;2023-06-04T08:35:47;9.63;;;8.37;;
12474;SDS011;6302;42.624;23.334;2023-06-04T08:38:13;12.60;;;9.32;;
12474;SDS011;6302;42.624;23.334;2023-06-04T08:40:42;11.50;;;9.27;;
12474;SDS011;6302;42.624;23.334;2023-06-04T08:43:08;11.47;;;8.57;;
12474;SDS011;6302;42.624;23.334;2023-06-04T08:45:38;9.35;;;8.35;;
12474;SDS011;6302;42.624;23.334;2023-06-04T08:48:07;14.20;;;8.77;;
12474;SDS011;6302;42.624;23.334;2023-06-04T08:50:36;12.00;;;7.97;;
12474;SDS011;6302;42.624;23.334;2023-06-04T08:53:08;10.48;;;8.25;;
12474;SDS011;6302;42.624;23.334;2023-06-04T08:55:37;10.55;;;8.32;;
12474;SDS011;6302;42.624;23.334;2023-06-04T08:58:06;9.23;;;7.88;;
12474;SDS011;6302;42.624;23.334;2023-06-04T09:00:35;9.37;;;7.57;;
12474;SDS011;6302;42.624;23.334;2023-06-04T09:03:02;10.52;;;7.60;;
12474;SDS011;6302;42.624;23.334;2023-06-04T09:05:29;11.18;;;9.15;;
12474;SDS011;6302;42.624;23.334;2023-06-04T09:07:58;9.88;;;8.73;;
12474;SDS011;6302;42.624;23.334;2023-06-04T09:10:28;8.60;;;7.70;;
12474;SDS011;6302;42.624;23.334;2023-06-04T09:12:59;11.20;;;8.23;;
12474;SDS011;6302;42.624;23.334;2023-06-04T09:15:29;10.02;;;8.02;;
12474;SDS011;6302;42.624;23.334;2023-06-04T09:17:56;9.40;;;7.97;;
12474;SDS011;6302;42.624;23.334;2023-06-04T09:20:23;11.57;;;8.13;;
12474;SDS011;6302;42.624;23.334;2023-06-04T09:22:51;11.97;;;7.67;;
12474;SDS011;6302;42.624;23.334;2023-06-04T09:25:21;8.33;;;7.20;;
12474;SDS011;6302;42.624;23.334;2023-06-04T09:27:50;8.50;;;7.17;;
12474;SDS011;6302;42.624;23.334;2023-06-04T09:30:17;7.97;;;7.20;;
12474;SDS011;6302;42.624;23.334;2023-06-04T09:32:46;8.23;;;7.43;;
12474;SDS011;6302;42.624;23.334;2023-06-04T09:35:13;11.23;;;8.37;;
12474;SDS011;6302;42.624;23.334;2023-06-04T09:37:41;8.83;;;7.93;;
12474;SDS011;6302;42.624;23.334;2023-06-04T09:40:09;8.95;;;7.32;;
12474;SDS011;6302;42.624;23.334;2023-06-04T09:42:43;9.05;;;7.68;;
12474;SDS011;6302;42.624;23.334;2023-06-04T09:45:10;8.80;;;7.83;;
12474;SDS011;6302;42.624;23.334;2023-06-04T09:47:38;9.10;;;7.87;;
12474;SDS011;6302;42.624;23.334;2023-06-04T09:50:08;9.10;;;7.93;;
12474;SDS011;6302;42.624;23.334;2023-06-04T09:52:35;11.33;;;8.20;;
12474;SDS011;6302;42.624;23.334;2023-06-04T09:55:02;9.65;;;8.50;;
12474;SDS011;6302;42.624;23.334;2023-06-04T09:57:30;11.93;;;8.27;;
12474;SDS011;6302;42.624;23.334;2023-06-04T10:00:01;10.07;;;8.48;;
12474;SDS011;6302;42.624;23.334;2023-06-04T10:02:34;10.25;;;8.48;;
12474;SDS011;6302;42.624;23.334;2023-06-04T10:05:00;9.68;;;8.18;;
12474;SDS011;6302;42.624;23.334;2023-06-04T10:07:29;11.10;;;7.95;;
12474;SDS011;6302;42.624;23.334;2023-06-04T10:09:57;9.40;;;8.15;;
12474;SDS011;6302;42.624;23.334;2023-06-04T10:12:25;11.38;;;9.30;;
12474;SDS011;6302;42.624;23.334;2023-06-04T10:14:56;10.98;;;8.10;;
12474;SDS011;6302;42.624;23.334;2023-06-04T10:17:25;8.53;;;7.60;;
12474;SDS011;6302;42.624;23.334;2023-06-04T10:19:53;11.18;;;7.78;;
12474;SDS011;6302;42.624;23.334;2023-06-04T10:22:20;10.07;;;8.10;;
12474;SDS011;6302;42.624;23.334;2023-06-04T10:24:48;9.65;;;7.78;;
12474;SDS011;6302;42.624;23.334;2023-06-04T10:27:17;8.80;;;7.95;;
12474;SDS011;6302;42.624;23.334;2023-06-04T10:29:45;9.75;;;7.13;;
12474;SDS011;6302;42.624;23.334;2023-06-04T10:32:12;9.15;;;7.63;;
12474;SDS011;6302;42.624;23.334;2023-06-04T10:34:39;10.40;;;7.13;;
12474;SDS011;6302;42.624;23.334;2023-06-04T10:37:06;10.55;;;8.02;;
12474;SDS011;6302;42.624;23.334;2023-06-04T10:39:49;9.02;;;7.55;;
12474;SDS011;6302;42.624;23.334;2023-06-04T10:42:19;9.38;;;7.18;;
12474;SDS011;6302;42.624;23.334;2023-06-04T10:44:47;9.07;;;7.50;;
12474;SDS011;6302;42.624;23.334;2023-06-04T10:47:18;9.68;;;6.82;;
12474;SDS011;6302;42.624;23.334;2023-06-04T10:49:46;7.95;;;7.25;;
12474;SDS011;6302;42.624;23.334;2023-06-04T10:52:13;8.38;;;6.65;;
12474;SDS011;6302;42.624;23.334;2023-06-04T10:54:40;7.88;;;6.78;;
12474;SDS011;6302;42.624;23.334;2023-06-04T10:57:14;7.63;;;6.93;;
12474;SDS011;6302;42.624;23.334;2023-06-04T10:59:42;9.60;;;7.65;;
12474;SDS011;6302;42.624;23.334;2023-06-04T11:02:19;7.75;;;6.95;;
12474;SDS011;6302;42.624;23.334;2023-06-04T11:04:46;8.88;;;7.35;;
12474;SDS011;6302;42.624;23.334;2023-06-04T11:07:14;8.07;;;7.30;;
12474;SDS011;6302;42.624;23.334;2023-06-04T11:09:47;7.90;;;7.10;;
12474;SDS011;6302;42.624;23.334;2023-06-04T11:12:16;8.30;;;7.50;;
12474;SDS011;6302;42.624;23.334;2023-06-04T11:14:53;7.68;;;6.97;;
12474;SDS011;6302;42.624;23.334;2023-06-04T11:17:20;11.38;;;6.97;;
12474;SDS011;6302;42.624;23.334;2023-06-04T11:19:47;8.48;;;7.57;;
12474;SDS011;6302;42.624;23.334;2023-06-04T11:22:13;8.82;;;7.68;;
12474;SDS011;6302;42.624;23.334;2023-06-04T11:24:40;9.07;;;7.97;;
12474;SDS011;6302;42.624;23.334;2023-06-04T11:27:07;7.60;;;6.85;;
12474;SDS011;6302;42.624;23.334;2023-06-04T11:29:35;7.43;;;6.60;;
12474;SDS011;6302;42.624;23.334;2023-06-04T11:32:03;7.72;;;6.88;;
12474;SDS011;6302;42.624;23.334;2023-06-04T11:34:30;8.82;;;7.93;;
12474;SDS011;6302;42.624;23.334;2023-06-04T11:37:07;7.95;;;7.15;;
12474;SDS011;6302;42.624;23.334;2023-06-04T11:39:35;7.03;;;6.40;;
12474;SDS011;6302;42.624;23.334;2023-06-04T11:42:04;7.68;;;6.97;;
12474;SDS011;6302;42.624;23.334;2023-06-04T11:44:32;7.63;;;6.82;;
12474;SDS011;6302;42.624;23.334;2023-06-04T11:47:00;11.02;;;7.22;;
12474;SDS011;6302;42.624;23.334;2023-06-04T11:49:30;9.27;;;7.22;;
12474;SDS011;6302;42.624;23.334;2023-06-04T11:51:57;7.60;;;6.95;;
12474;SDS011;6302;42.624;23.334;2023-06-04T11:54:24;8.07;;;7.28;;
12474;SDS011;6302;42.624;23.334;2023-06-04T11:56:52;9.05;;;7.60;;
12474;SDS011;6302;42.624;23.334;2023-06-04T11:59:19;8.70;;;7.90;;
12474;SDS011;6302;42.624;23.334;2023-06-04T12:01:46;8.50;;;7.70;;
12474;SDS011;6302;42.624;23.334;2023-06-04T12:04:16;13.88;;;7.88;;
12474;SDS011;6302;42.624;23.334;2023-06-04T12:06:50;10.13;;;9.23;;
12474;SDS011;6302;42.624;23.334;2023-06-04T12:09:21;8.68;;;7.85;;
12474;SDS011;6302;42.624;23.334;2023-06-04T12:11:48;9.55;;;8.45;;
12474;SDS011;6302;42.624;23.334;2023-06-04T12:14:15;9.43;;;8.40;;
12474;SDS011;6302;42.624;23.334;2023-06-04T12:16:44;9.52;;;8.73;;
12474;SDS011;6302;42.624;23.334;2023-06-04T12:19:22;9.43;;;8.35;;
12474;SDS011;6302;42.624;23.334;2023-06-04T12:21:58;9.53;;;8.73;;
12474;SDS011;6302;42.624;23.334;2023-06-04T12:24:26;9.32;;;8.20;;
12474;SDS011;6302;42.624;23.334;2023-06-04T12:27:00;9.90;;;8.90;;
12474;SDS011;6302;42.624;23.334;2023-06-04T12:29:29;9.50;;;8.70;;
12474;SDS011;6302;42.624;23.334;2023-06-04T12:32:01;9.43;;;8.50;;
12474;SDS011;6302;42.624;23.334;2023-06-04T12:34:30;9.48;;;8.68;;
12474;SDS011;6302;42.624;23.334;2023-06-04T12:36:58;10.30;;;9.23;;
12474;SDS011;6302;42.624;23.334;2023-06-04T12:39:25;10.30;;;9.00;;
12474;SDS011;6302;42.624;23.334;2023-06-04T12:41:52;10.40;;;9.48;;
12474;SDS011;6302;42.624;23.334;2023-06-04T12:44:19;10.50;;;9.50;;
12474;SDS011;6302;42.624;23.334;2023-06-04T12:46:46;14.70;;;12.35;;
12474;SDS011;6302;42.624;23.334;2023-06-04T12:49:13;15.83;;;12.87;;
12474;SDS011;6302;42.624;23.334;2023-06-04T12:51:41;15.45;;;13.95;;
12474;SDS011;6302;42.624;23.334;2023-06-04T12:54:08;23.37;;;15.93;;
12474;SDS011;6302;42.624;23.334;2023-06-04T12:56:36;32.78;;;21.80;;
12474;SDS011;6302;42.624;23.334;2023-06-04T12:59:03;39.08;;;22.95;;
12474;SDS011;6302;42.624;23.334;2023-06-04T13:01:29;30.30;;;21.65;;
12474;SDS011;6302;42.624;23.334;2023-06-04T13:03:56;29.55;;;22.80;;
12474;SDS011;6302;42.624;23.334;2023-06-04T13:06:23;15.63;;;14.00;;
12474;SDS011;6302;42.624;23.334;2023-06-04T13:08:51;13.15;;;11.95;;
12474;SDS011;6302;42.624;23.334;2023-06-04T13:11:18;11.43;;;10.20;;
12474;SDS011;6302;42.624;23.334;2023-06-04T13:13:45;10.90;;;9.80;;
12474;SDS011;6302;42.624;23.334;2023-06-04T13:16:12;11.53;;;10.47;;
12474;SDS011;6302;42.624;23.334;2023-06-04T13:18:38;11.82;;;10.63;;
12474;SDS011;6302;42.624;23.334;2023-06-04T13:21:05;8.80;;;7.88;;
12474;SDS011;6302;42.624;23.334;2023-06-04T13:23:32;9.17;;;8.27;;
12474;SDS011;6302;42.624;23.334;2023-06-04T13:26:00;9.67;;;8.33;;
12474;SDS011;6302;42.624;23.334;2023-06-04T13:28:27;9.90;;;8.80;;
12474;SDS011;6302;42.624;23.334;2023-06-04T13:30:54;9.18;;;8.35;;
12474;SDS011;6302;42.624;23.334;2023-06-04T13:33:20;9.50;;;8.68;;
12474;SDS011;6302;42.624;23.334;2023-06-04T13:35:47;9.07;;;8.10;;
12474;SDS011;6302;42.624;23.334;2023-06-04T13:38:15;8.07;;;7.38;;
12474;SDS011;6302;42.624;23.334;2023-06-04T13:40:42;9.43;;;8.43;;
12474;SDS011;6302;42.624;23.334;2023-06-04T13:43:11;9.25;;;8.35;;
12474;SDS011;6302;42.624;23.334;2023-06-04T13:45:38;8.05;;;7.35;;
12474;SDS011;6302;42.624;23.334;2023-06-04T13:48:05;8.18;;;7.47;;
12474;SDS011;6302;42.624;23.334;2023-06-04T13:50:33;7.93;;;7.22;;
12474;SDS011;6302;42.624;23.334;2023-06-04T13:53:00;7.35;;;6.75;;
12474;SDS011;6302;42.624;23.334;2023-06-04T13:55:27;7.57;;;6.97;;
12474;SDS011;6302;42.624;23.334;2023-06-04T13:57:54;7.78;;;7.07;;
12474;SDS011;6302;42.624;23.334;2023-06-04T14:00:22;7.20;;;6.60;;
12474;SDS011;6302;42.624;23.334;2023-06-04T14:02:49;7.85;;;7.05;;
12474;SDS011;6302;42.624;23.334;2023-06-04T14:05:16;7.45;;;6.75;;
12474;SDS011;6302;42.624;23.334;2023-06-04T14:07:43;8.17;;;7.40;;
12474;SDS011;6302;42.624;23.334;2023-06-04T14:10:10;7.82;;;6.68;;
12474;SDS011;6302;42.624;23.334;2023-06-04T14:12:38;7.90;;;7.10;;
12474;SDS011;6302;42.624;23.334;2023-06-04T14:15:06;7.90;;;7.20;;
12474;SDS011;6302;42.624;23.334;2023-06-04T14:17:35;10.38;;;7.22;;
12474;SDS011;6302;42.624;23.334;2023-06-04T14:20:02;8.13;;;7.43;;
12474;SDS011;6302;42.624;23.334;2023-06-04T14:22:32;9.30;;;7.47;;
12474;SDS011;6302;42.624;23.334;2023-06-04T14:25:00;7.45;;;6.75;;
12474;SDS011;6302;42.624;23.334;2023-06-04T14:27:27;8.95;;;7.82;;
12474;SDS011;6302;42.624;23.334;2023-06-04T14:29:55;8.32;;;7.45;;
12474;SDS011;6302;42.624;23.334;2023-06-04T14:32:22;9.05;;;7.65;;
12474;SDS011;6302;42.624;23.334;2023-06-04T14:34:51;8.30;;;7.45;;
12474;SDS011;6302;42.624;23.334;2023-06-04T14:37:17;8.50;;;7.67;;
12474;SDS011;6302;42.624;23.334;2023-06-04T14:39:46;8.23;;;7.07;;
12474;SDS011;6302;42.624;23.334;2023-06-04T14:42:12;8.23;;;7.50;;
12474;SDS011;6302;42.624;23.334;2023-06-04T14:44:39;7.63;;;6.93;;
12474;SDS011;6302;42.624;23.334;2023-06-04T14:47:06;8.85;;;7.72;;
12474;SDS011;6302;42.624;23.334;2023-06-04T14:49:33;11.05;;;8.13;;